Humber Bridge — 3EHZ5 — position and weather

sailwx.info

Track history (hours):
 
Tides and Currents Weather Stations Pressure Air Temp Water Temp Dewpoint Dewpoint Depression Visibility Wind Speed Wind Dir Waves Ship Positions

Humber Bridge

Last reported at 2017-Dec-16 13:00 UTC. Time now 2017-Dec-16 13:02 UTC.
Position N 36°01' W 122°03'.

Length 336 m; draft 10.8 m.

Type: Ship (hazmat cat A). MMSI: 372038000.

Date/timePositionNaut miles runAvg speedWind from/ knotsBaromVisibWave heightAir tempDewpointWater temp
2017-Dec-16 13:00N 36°01' W 122°03'611.4
2017-Dec-16 12:31N 35°57' W 121°60'611.9
2017-Dec-16 12:00N 35°51' W 121°56'611.8
2017-Dec-16 11:29N 35°46' W 121°52'612.3
2017-Dec-16 11:00N 35°41' W 121°49'612.3
2017-Dec-16 10:30N 35°35' W 121°45'912.0
2017-Dec-16 09:47N 35°28' W 121°40'312.2
2017-Dec-16 09:30N 35°25' W 121°38'612.4
2017-Dec-16 09:00N 35°20' W 121°34'612.8
2017-Dec-16 08:30N 35°14' W 121°30'612.9
2017-Dec-16 08:00N 35°08' W 121°26'612.9
2017-Dec-16 07:30N 35°03' W 121°22'612.8
2017-Dec-16 07:00N 34°57' W 121°18'612.8
2017-Dec-16 06:30N 34°52' W 121°15'612.4
2017-Dec-16 06:00N 34°46' W 121°11'612.8
2017-Dec-16 05:30N 34°41' W 121°07'612.8
2017-Dec-16 05:00N 34°36' W 121°03'613.0
2017-Dec-16 04:31N 34°30' W 120°58'612.2
2017-Dec-16 04:00N 34°26' W 120°52'5 9.9
2017-Dec-16 03:30N 34°25' W 120°47'5 9.9
2017-Dec-16 03:00N 34°24' W 120°41'5 9.4
2017-Dec-16 02:31N 34°22' W 120°35'5 9.5
2017-Dec-16 02:00N 34°21' W 120°30'5 9.8
2017-Dec-16 01:28N 34°20' W 120°24'5 9.6
2017-Dec-16 00:59N 34°19' W 120°18'5 9.7
2017-Dec-16 00:28N 34°17' W 120°12'5 9.7
2017-Dec-16 00:00N 34°16' W 120°07'5 9.9
2017-Dec-15 23:29N 34°15' W 120°01'5 9.8
2017-Dec-15 23:00N 34°13' W 119°55'5 9.8
2017-Dec-15 22:29N 34°12' W 119°50'5 9.8
2017-Dec-15 21:56N 34°11' W 119°43'4 9.5
2017-Dec-15 21:30N 34°10' W 119°38'510.0
2017-Dec-15 21:00N 34°08' W 119°33'5 9.8
2017-Dec-15 20:30N 34°07' W 119°27'611.3
2017-Dec-15 19:59N 34°05' W 119°20'612.5
2017-Dec-15 19:29N 34°03' W 119°13'611.4
2017-Dec-15 19:00N 34°01' W 119°07'611.4
2017-Dec-15 18:31N 33°58' W 119°01'611.3
2017-Dec-15 18:01N 33°55' W 118°55'611.4
2017-Dec-15 17:30N 33°52' W 118°49'611.3
2017-Dec-15 16:59N 33°49' W 118°43'611.3
2017-Dec-15 16:30N 33°46' W 118°38'611.4
2017-Dec-15 16:00N 33°44' W 118°32'611.5
2017-Dec-15 15:30N 33°41' W 118°26'611.3
2017-Dec-15 15:00N 33°38' W 118°20'611.3
2017-Dec-15 14:30N 33°39' W 118°13'5 9.4
2017-Dec-15 14:00N 33°43' W 118°11'2 3.4
2017-Dec-15 13:30N 33°44' W 118°12'0 0.1
2017-Dec-15 12:23N 33°45' W 118°12'0 0.0
2017-Dec-14 12:38N 33°45' W 118°12'0 0.0
2017-Dec-14 12:17N 33°45' W 118°12'0 0.0
2017-Dec-14 11:59N 33°45' W 118°12'0 0.0
2017-Dec-14 10:35N 33°45' W 118°12'0 0.3
2017-Dec-14 10:26N 33°45' W 118°12'0 0.0
2017-Dec-14 09:11N 33°45' W 118°12'0 0.0
2017-Dec-13 19:41N 33°45' W 118°12'0 0.1
2017-Dec-13 19:29N 33°45' W 118°12'0 0.0
2017-Dec-13 09:47N 33°45' W 118°12'0 0.0
2017-Dec-13 09:29N 33°45' W 118°12'0 0.0
2017-Dec-13 05:41N 33°45' W 118°12'0 0.0
2017-Dec-12 15:47N 33°45' W 118°12'0 0.0
2017-Dec-12 15:17N 33°45' W 118°12'0 0.0
2017-Dec-12 14:59N 33°45' W 118°12'0 0.0
2017-Dec-12 14:29N 33°45' W 118°12'0 0.0
2017-Dec-12 13:59N 33°45' W 118°12'0 0.0
2017-Dec-12 13:29N 33°45' W 118°12'0 0.0
2017-Dec-12 12:59N 33°45' W 118°12'0 0.0
2017-Dec-12 12:17N 33°45' W 118°12'0 0.0
2017-Dec-12 11:59N 33°45' W 118°12'0 0.0
2017-Dec-12 11:29N 33°45' W 118°12'0 0.0
2017-Dec-12 10:53N 33°45' W 118°12'0 0.0
2017-Dec-12 10:29N 33°45' W 118°12'0 0.0
2017-Dec-12 09:59N 33°45' W 118°12'2 0.1
2017-Dec-11 22:41N 33°43' W 118°11'3 7.8
2017-Dec-11 22:15N 33°40' W 118°11'2 7.1
2017-Dec-11 22:00N 33°38' W 118°11'8 6.9
2017-Dec-11 20:48N 33°36' W 118°20'2 7.7
2017-Dec-11 20:30N 33°37' W 118°23'4 7.9
2017-Dec-11 20:00N 33°39' W 118°27'4 7.9
2017-Dec-11 19:30N 33°41' W 118°31'4 7.2
2017-Dec-11 19:00N 33°43' W 118°35'5 9.6
2017-Dec-11 18:30N 33°45' W 118°40'5 9.3
2017-Dec-11 18:00N 33°47' W 118°45'5 9.4
2017-Dec-11 17:30N 33°50' W 118°50'510.1
2017-Dec-11 16:58N 33°52' W 118°55'510.8
2017-Dec-11 16:29N 33°55' W 119°01'511.1
2017-Dec-11 16:00N 33°58' W 119°06'612.6
2017-Dec-11 15:30N 34°01' W 119°13'612.4
2017-Dec-11 15:00N 34°03' W 119°20'612.6
2017-Dec-11 14:30N 34°05' W 119°27'712.4
2017-Dec-11 13:58N 34°06' W 119°35'612.2
2017-Dec-11 13:30N 34°08' W 119°41'612.2
2017-Dec-11 13:00N 34°10' W 119°48'712.6
2017-Dec-11 12:28N 34°11' W 119°56'612.9
2017-Dec-11 11:59N 34°13' W 120°03'712.6
2017-Dec-11 11:26N 34°15' W 120°12'612.7
2017-Dec-11 10:58N 34°17' W 120°19'612.5
2017-Dec-11 10:30N 34°18' W 120°25'510.1
2017-Dec-11 09:59N 34°19' W 120°31'4 8.2
2017-Dec-11 09:30N 34°20' W 120°36'4 8.4
2017-Dec-11 08:59N 34°22' W 120°41'4 8.4
2017-Dec-11 08:30N 34°23' W 120°46'4 8.6
2017-Dec-11 08:00N 34°24' W 120°51'510.7
2017-Dec-11 07:30N 34°27' W 120°56'612.9
2017-Dec-11 07:00N 34°31' W 121°03'612.7
2017-Dec-11 06:30N 34°34' W 121°09'612.3
2017-Dec-11 06:00N 34°38' W 121°15'1 2.4
2017-Dec-11 05:30N 34°39' W 121°16'0 0.5
2017-Dec-11 04:58N 34°39' W 121°16'0 0.3
2017-Dec-11 04:30N 34°39' W 121°16'1 1.2
2017-Dec-11 04:00N 34°40' W 121°16'510.5
2017-Dec-11 03:30N 34°43' W 121°21'918.1
2017-Dec-11 03:00N 34°49' W 121°30'917.8
2017-Dec-11 02:30N 34°54' W 121°38'917.6
2017-Dec-11 02:00N 34°60' W 121°47'5417.6
2017-Dec-10 22:55N 35°33' W 122°39'717.5
2017-Dec-10 22:30N 35°37' W 122°46'917.7
2017-Dec-10 22:00N 35°43' W 122°55'918.0
2017-Dec-10 21:30N 35°48' W 123°04'918.0
2017-Dec-10 21:00N 35°54' W 123°12'1017.8
2017-Dec-10 20:28N 35°59' W 123°22'817.9
2017-Dec-10 20:00N 36°04' W 123°30'917.9
2017-Dec-10 19:30N 36°10' W 123°39'917.9
2017-Dec-10 19:00N 36°15' W 123°48'918.1
2017-Dec-10 18:30N 36°21' W 123°57'918.0
2017-Dec-10 18:00N 36°26' W 124°06'917.8
2017-Dec-10 17:29N 36°32' W 124°15'917.8
2017-Dec-10 17:00N 36°37' W 124°24'917.7
2017-Dec-10 16:29N 36°42' W 124°33'918.1
2017-Dec-10 16:00N 36°47' W 124°41'917.9
2017-Dec-10 15:30N 36°53' W 124°50'918.2
2017-Dec-10 15:00N 36°58' W 124°59'918.2
2017-Dec-10 14:30N 37°04' W 125°09'918.2
2017-Dec-10 14:00N 37°09' W 125°18'918.3
2017-Dec-10 13:30N 37°14' W 125°27'918.3
2017-Dec-10 13:00N 37°20' W 125°36'918.5
2017-Dec-10 12:30N 37°25' W 125°46'918.7
2017-Dec-10 12:00N 37°31' W 125°55'918.3
2017-Dec-10 11:30N 37°36' W 126°05'918.2
2017-Dec-10 11:00N 37°41' W 126°14'918.1
2017-Dec-10 10:30N 37°46' W 126°23'917.9
2017-Dec-10 10:00N 37°52' W 126°33'917.7
2017-Dec-10 09:30N 37°57' W 126°42'1118.2
2017-Dec-10 08:55N 38°03' W 126°53'  
Track history (hours):
 
Tides and Currents Weather Stations Pressure Air Temp Water Temp Dewpoint Dewpoint Depression Visibility Wind Speed Wind Dir Waves Ship Positions

Humber Bridge

Last reported at 2017-Dec-16 13:00 UTC. Time now 2017-Dec-16 13:02 UTC.
Position N 36°01' W 122°03'.

Length 336 m; draft 10.8 m.

Type: Ship (hazmat cat A). MMSI: 372038000.

Date/timePositionNaut miles runAvg speedWind from/ knotsBaromVisibWave heightAir tempDewpointWater temp
2017-Dec-16 13:00N 36°01' W 122°03'611.4
2017-Dec-16 12:31N 35°57' W 121°60'611.9
2017-Dec-16 12:00N 35°51' W 121°56'611.8
2017-Dec-16 11:29N 35°46' W 121°52'612.3
2017-Dec-16 11:00N 35°41' W 121°49'612.3
2017-Dec-16 10:30N 35°35' W 121°45'912.0
2017-Dec-16 09:47N 35°28' W 121°40'312.2
2017-Dec-16 09:30N 35°25' W 121°38'612.4
2017-Dec-16 09:00N 35°20' W 121°34'612.8
2017-Dec-16 08:30N 35°14' W 121°30'612.9
2017-Dec-16 08:00N 35°08' W 121°26'612.9
2017-Dec-16 07:30N 35°03' W 121°22'612.8
2017-Dec-16 07:00N 34°57' W 121°18'612.8
2017-Dec-16 06:30N 34°52' W 121°15'612.4
2017-Dec-16 06:00N 34°46' W 121°11'612.8
2017-Dec-16 05:30N 34°41' W 121°07'612.8
2017-Dec-16 05:00N 34°36' W 121°03'613.0
2017-Dec-16 04:31N 34°30' W 120°58'612.2
2017-Dec-16 04:00N 34°26' W 120°52'5 9.9
2017-Dec-16 03:30N 34°25' W 120°47'5 9.9
2017-Dec-16 03:00N 34°24' W 120°41'5 9.4
2017-Dec-16 02:31N 34°22' W 120°35'5 9.5
2017-Dec-16 02:00N 34°21' W 120°30'5 9.8
2017-Dec-16 01:28N 34°20' W 120°24'5 9.6
2017-Dec-16 00:59N 34°19' W 120°18'5 9.7
2017-Dec-16 00:28N 34°17' W 120°12'5 9.7
2017-Dec-16 00:00N 34°16' W 120°07'5 9.9
2017-Dec-15 23:29N 34°15' W 120°01'5 9.8
2017-Dec-15 23:00N 34°13' W 119°55'5 9.8
2017-Dec-15 22:29N 34°12' W 119°50'5 9.8
2017-Dec-15 21:56N 34°11' W 119°43'4 9.5
2017-Dec-15 21:30N 34°10' W 119°38'510.0
2017-Dec-15 21:00N 34°08' W 119°33'5 9.8
2017-Dec-15 20:30N 34°07' W 119°27'611.3
2017-Dec-15 19:59N 34°05' W 119°20'612.5
2017-Dec-15 19:29N 34°03' W 119°13'611.4
2017-Dec-15 19:00N 34°01' W 119°07'611.4
2017-Dec-15 18:31N 33°58' W 119°01'611.3
2017-Dec-15 18:01N 33°55' W 118°55'611.4
2017-Dec-15 17:30N 33°52' W 118°49'611.3
2017-Dec-15 16:59N 33°49' W 118°43'611.3
2017-Dec-15 16:30N 33°46' W 118°38'611.4
2017-Dec-15 16:00N 33°44' W 118°32'611.5
2017-Dec-15 15:30N 33°41' W 118°26'611.3
2017-Dec-15 15:00N 33°38' W 118°20'611.3
2017-Dec-15 14:30N 33°39' W 118°13'5 9.4
2017-Dec-15 14:00N 33°43' W 118°11'2 3.4
2017-Dec-15 13:30N 33°44' W 118°12'0 0.1
2017-Dec-15 12:23N 33°45' W 118°12'0 0.0
2017-Dec-14 12:38N 33°45' W 118°12'0 0.0
2017-Dec-14 12:17N 33°45' W 118°12'0 0.0
2017-Dec-14 11:59N 33°45' W 118°12'0 0.0
2017-Dec-14 10:35N 33°45' W 118°12'0 0.3
2017-Dec-14 10:26N 33°45' W 118°12'0 0.0
2017-Dec-14 09:11N 33°45' W 118°12'0 0.0
2017-Dec-13 19:41N 33°45' W 118°12'0 0.1
2017-Dec-13 19:29N 33°45' W 118°12'0 0.0
2017-Dec-13 09:47N 33°45' W 118°12'0 0.0
2017-Dec-13 09:29N 33°45' W 118°12'0 0.0
2017-Dec-13 05:41N 33°45' W 118°12'0 0.0
2017-Dec-12 15:47N 33°45' W 118°12'0 0.0
2017-Dec-12 15:17N 33°45' W 118°12'0 0.0
2017-Dec-12 14:59N 33°45' W 118°12'0 0.0
2017-Dec-12 14:29N 33°45' W 118°12'0 0.0
2017-Dec-12 13:59N 33°45' W 118°12'0 0.0
2017-Dec-12 13:29N 33°45' W 118°12'0 0.0
2017-Dec-12 12:59N 33°45' W 118°12'0 0.0
2017-Dec-12 12:17N 33°45' W 118°12'0 0.0
2017-Dec-12 11:59N 33°45' W 118°12'0 0.0
2017-Dec-12 11:29N 33°45' W 118°12'0 0.0
2017-Dec-12 10:53N 33°45' W 118°12'0 0.0
2017-Dec-12 10:29N 33°45' W 118°12'0 0.0
2017-Dec-12 09:59N 33°45' W 118°12'2 0.1
2017-Dec-11 22:41N 33°43' W 118°11'3 7.8
2017-Dec-11 22:15N 33°40' W 118°11'2 7.1
2017-Dec-11 22:00N 33°38' W 118°11'8 6.9
2017-Dec-11 20:48N 33°36' W 118°20'2 7.7
2017-Dec-11 20:30N 33°37' W 118°23'4 7.9
2017-Dec-11 20:00N 33°39' W 118°27'4 7.9
2017-Dec-11 19:30N 33°41' W 118°31'4 7.2
2017-Dec-11 19:00N 33°43' W 118°35'5 9.6
2017-Dec-11 18:30N 33°45' W 118°40'5 9.3
2017-Dec-11 18:00N 33°47' W 118°45'5 9.4
2017-Dec-11 17:30N 33°50' W 118°50'510.1
2017-Dec-11 16:58N 33°52' W 118°55'510.8
2017-Dec-11 16:29N 33°55' W 119°01'511.1
2017-Dec-11 16:00N 33°58' W 119°06'612.6
2017-Dec-11 15:30N 34°01' W 119°13'612.4
2017-Dec-11 15:00N 34°03' W 119°20'612.6
2017-Dec-11 14:30N 34°05' W 119°27'712.4
2017-Dec-11 13:58N 34°06' W 119°35'612.2
2017-Dec-11 13:30N 34°08' W 119°41'612.2
2017-Dec-11 13:00N 34°10' W 119°48'712.6
2017-Dec-11 12:28N 34°11' W 119°56'612.9
2017-Dec-11 11:59N 34°13' W 120°03'712.6
2017-Dec-11 11:26N 34°15' W 120°12'612.7
2017-Dec-11 10:58N 34°17' W 120°19'612.5
2017-Dec-11 10:30N 34°18' W 120°25'510.1
2017-Dec-11 09:59N 34°19' W 120°31'4 8.2
2017-Dec-11 09:30N 34°20' W 120°36'4 8.4
2017-Dec-11 08:59N 34°22' W 120°41'4 8.4
2017-Dec-11 08:30N 34°23' W 120°46'4 8.6
2017-Dec-11 08:00N 34°24' W 120°51'510.7
2017-Dec-11 07:30N 34°27' W 120°56'612.9
2017-Dec-11 07:00N 34°31' W 121°03'612.7
2017-Dec-11 06:30N 34°34' W 121°09'612.3
2017-Dec-11 06:00N 34°38' W 121°15'1 2.4
2017-Dec-11 05:30N 34°39' W 121°16'0 0.5
2017-Dec-11 04:58N 34°39' W 121°16'0 0.3
2017-Dec-11 04:30N 34°39' W 121°16'1 1.2
2017-Dec-11 04:00N 34°40' W 121°16'510.5
2017-Dec-11 03:30N 34°43' W 121°21'918.1
2017-Dec-11 03:00N 34°49' W 121°30'917.8
2017-Dec-11 02:30N 34°54' W 121°38'917.6
2017-Dec-11 02:00N 34°60' W 121°47'5417.6
2017-Dec-10 22:55N 35°33' W 122°39'717.5
2017-Dec-10 22:30N 35°37' W 122°46'917.7
2017-Dec-10 22:00N 35°43' W 122°55'918.0
2017-Dec-10 21:30N 35°48' W 123°04'918.0
2017-Dec-10 21:00N 35°54' W 123°12'1017.8
2017-Dec-10 20:28N 35°59' W 123°22'817.9
2017-Dec-10 20:00N 36°04' W 123°30'917.9
2017-Dec-10 19:30N 36°10' W 123°39'917.9
2017-Dec-10 19:00N 36°15' W 123°48'918.1
2017-Dec-10 18:30N 36°21' W 123°57'918.0
2017-Dec-10 18:00N 36°26' W 124°06'917.8
2017-Dec-10 17:29N 36°32' W 124°15'917.8
2017-Dec-10 17:00N 36°37' W 124°24'917.7
2017-Dec-10 16:29N 36°42' W 124°33'918.1
2017-Dec-10 16:00N 36°47' W 124°41'917.9
2017-Dec-10 15:30N 36°53' W 124°50'918.2
2017-Dec-10 15:00N 36°58' W 124°59'918.2
2017-Dec-10 14:30N 37°04' W 125°09'918.2
2017-Dec-10 14:00N 37°09' W 125°18'918.3
2017-Dec-10 13:30N 37°14' W 125°27'918.3
2017-Dec-10 13:00N 37°20' W 125°36'918.5
2017-Dec-10 12:30N 37°25' W 125°46'918.7
2017-Dec-10 12:00N 37°31' W 125°55'918.3
2017-Dec-10 11:30N 37°36' W 126°05'918.2
2017-Dec-10 11:00N 37°41' W 126°14'918.1
2017-Dec-10 10:30N 37°46' W 126°23'917.9
2017-Dec-10 10:00N 37°52' W 126°33'917.7
2017-Dec-10 09:30N 37°57' W 126°42'1118.2
2017-Dec-10 08:55N 38°03' W 126°53'  

Dump ship's entire track history